Time;durP1;ratioP1;P1;durP2;ratioP2;P2;SDS_P1;SDS_P2;PMS_P1;PMS_P2;Temp;Humidity;BMP_temperature;BMP_pressure;BME280_temperature;BME280_humidity;BME280_pressure;Samples;Min_cycle;Max_cycle;Signal;HPM_P1;HPM_P2
2021/05/20 00:00:19;;;;;;;1.90;0.97;;;10.40;99.90;;;;;;5072577;28;20462;-65
2021/05/20 00:02:46;;;;;;;3.03;1.03;;;10.40;99.90;;;;;;5072045;28;20446;-65
2021/05/20 00:05:16;;;;;;;2.10;1.10;;;10.40;99.90;;;;;;5072859;28;20538;-65
2021/05/20 00:07:42;;;;;;;2.10;1.20;;;10.40;99.90;;;;;;5072516;28;20465;-66
2021/05/20 00:10:09;;;;;;;2.40;0.93;;;10.40;99.90;;;;;;5072665;28;20921;-65
2021/05/20 00:12:37;;;;;;;1.80;1.00;;;10.50;99.90;;;;;;5072455;28;20443;-65
2021/05/20 00:15:05;;;;;;;2.10;1.40;;;10.40;99.90;;;;;;5072328;28;20461;-65
2021/05/20 00:17:32;;;;;;;2.83;0.93;;;10.30;99.90;;;;;;5072502;28;20538;-64
2021/05/20 00:19:58;;;;;;;1.90;0.90;;;10.30;99.90;;;;;;5072617;28;21074;-64
2021/05/20 00:22:25;;;;;;;1.80;1.13;;;10.30;99.90;;;;;;5072764;28;20483;-67
2021/05/20 00:24:51;;;;;;;4.07;1.03;;;10.30;99.90;;;;;;5072510;28;20443;-65
2021/05/20 00:27:18;;;;;;;2.73;1.00;;;10.30;99.90;;;;;;5072271;28;21063;-65
2021/05/20 00:29:44;;;;;;;2.43;1.00;;;10.30;99.90;;;;;;5072345;28;20523;-65
2021/05/20 00:32:10;;;;;;;1.80;0.90;;;10.30;99.90;;;;;;5072326;28;20504;-66
2021/05/20 00:34:37;;;;;;;2.30;1.13;;;10.30;99.90;;;;;;5072116;28;20458;-66
2021/05/20 00:37:03;;;;;;;1.80;1.00;;;10.30;99.90;;;;;;5071813;28;20525;-66
2021/05/20 00:39:30;;;;;;;1.97;1.00;;;10.30;99.90;;;;;;5071858;28;21034;-65
2021/05/20 00:41:57;;;;;;;2.10;1.20;;;10.40;99.90;;;;;;5072033;28;21162;-65
2021/05/20 00:44:23;;;;;;;3.87;1.00;;;10.40;99.90;;;;;;5071967;28;20461;-65
2021/05/20 00:46:49;;;;;;;2.63;1.30;;;10.40;99.90;;;;;;5071637;28;20542;-65
2021/05/20 00:49:15;;;;;;;1.80;0.90;;;10.40;99.90;;;;;;5072041;28;20455;-66
2021/05/20 00:51:45;;;;;;;2.90;1.30;;;10.40;99.90;;;;;;5071540;28;20482;-65
2021/05/20 00:54:12;;;;;;;3.53;1.30;;;10.30;99.90;;;;;;5071809;28;20910;-65
2021/05/20 00:56:40;;;;;;;2.47;1.37;;;10.30;99.90;;;;;;5071078;28;20573;-64
2021/05/20 00:59:06;;;;;;;2.30;1.10;;;10.20;99.90;;;;;;5071729;28;20801;-65
2021/05/20 01:01:33;;;;;;;1.97;1.10;;;10.10;99.90;;;;;;5071731;28;20556;-65
2021/05/20 01:04:00;;;;;;;2.60;1.67;;;9.90;99.90;;;;;;5071547;28;20443;-67
2021/05/20 01:06:26;;;;;;;2.90;1.20;;;9.80;99.90;;;;;;5071513;28;20475;-65
2021/05/20 01:08:56;;;;;;;2.67;1.63;;;9.80;99.90;;;;;;5071193;28;20450;-65
2021/05/20 01:11:22;;;;;;;2.20;1.27;;;9.70;99.90;;;;;;5071255;28;20444;-65
2021/05/20 01:13:50;;;;;;;2.40;1.10;;;9.70;99.90;;;;;;5071254;28;20463;-65
2021/05/20 01:16:16;;;;;;;2.00;1.30;;;9.70;99.90;;;;;;5070876;28;20960;-65
2021/05/20 01:18:42;;;;;;;1.80;1.00;;;9.80;99.90;;;;;;5070968;28;21012;-66
2021/05/20 01:21:09;;;;;;;2.77;1.37;;;9.80;99.90;;;;;;5070987;28;20547;-64
2021/05/20 01:23:36;;;;;;;2.20;1.27;;;9.80;99.90;;;;;;5071132;28;20454;-66
2021/05/20 01:26:04;;;;;;;2.00;1.10;;;9.80;99.90;;;;;;5070944;28;20507;-66
2021/05/20 01:28:33;;;;;;;3.40;1.20;;;9.80;99.90;;;;;;5070975;28;20827;-66
2021/05/20 01:31:01;;;;;;;1.90;0.90;;;9.70;99.90;;;;;;5071029;28;20503;-65
2021/05/20 01:33:28;;;;;;;3.00;1.33;;;9.80;99.90;;;;;;5070872;28;21036;-65
2021/05/20 01:35:55;;;;;;;2.47;0.80;;;9.70;99.90;;;;;;5070828;28;20447;-66
2021/05/20 01:41:10;;;;;;;1.73;1.10;;;9.70;99.90;;;;;;5070691;28;20473;-65
2021/05/20 01:43:38;;;;;;;1.70;1.00;;;9.60;99.90;;;;;;5070929;28;21200;-65
2021/05/20 01:46:05;;;;;;;2.40;1.20;;;9.40;99.90;;;;;;5070830;28;20489;-65
2021/05/20 01:48:34;;;;;;;3.27;1.40;;;9.30;99.90;;;;;;5070316;28;20983;-65
2021/05/20 01:51:02;;;;;;;1.80;1.10;;;9.10;99.90;;;;;;5070431;28;20983;-66
2021/05/20 01:53:30;;;;;;;2.93;1.20;;;8.90;99.90;;;;;;5070666;28;20546;-65
2021/05/20 01:55:56;;;;;;;2.70;1.37;;;8.80;99.90;;;;;;5070766;28;20443;-65
2021/05/20 01:58:23;;;;;;;2.60;1.47;;;8.70;99.90;;;;;;5070286;28;20524;-65
2021/05/20 02:00:49;;;;;;;3.27;1.40;;;8.60;99.90;;;;;;5070340;28;20831;-65
2021/05/20 02:03:16;;;;;;;2.30;1.30;;;8.60;99.90;;;;;;5070462;28;20530;-65
2021/05/20 02:05:42;;;;;;;2.47;1.20;;;8.60;99.90;;;;;;5070747;28;20927;-65
2021/05/20 02:08:08;;;;;;;1.90;1.10;;;8.70;99.90;;;;;;5070347;28;20447;-65
2021/05/20 02:10:37;;;;;;;2.00;1.20;;;8.70;99.90;;;;;;5070326;28;20472;-65
2021/05/20 02:13:03;;;;;;;2.43;1.50;;;8.70;99.90;;;;;;5070621;28;20455;-66
2021/05/20 02:15:29;;;;;;;4.00;1.27;;;8.70;99.90;;;;;;5070449;28;20542;-65
2021/05/20 02:17:56;;;;;;;2.17;1.30;;;8.70;99.90;;;;;;5070236;28;20837;-64
2021/05/20 02:20:22;;;;;;;3.03;1.20;;;8.70;99.90;;;;;;5070220;28;20976;-64
2021/05/20 02:22:49;;;;;;;2.20;1.30;;;8.70;99.90;;;;;;5070585;28;20473;-64
2021/05/20 02:25:16;;;;;;;3.63;1.30;;;8.70;99.90;;;;;;5070056;28;20486;-66
2021/05/20 02:27:43;;;;;;;1.90;1.27;;;8.70;99.90;;;;;;5069938;28;20818;-65
2021/05/20 02:30:12;;;;;;;2.17;1.10;;;8.80;99.90;;;;;;5070081;28;20477;-65
2021/05/20 02:32:38;;;;;;;2.70;1.57;;;8.80;99.90;;;;;;5070188;28;20443;-66
2021/05/20 02:35:06;;;;;;;1.70;0.90;;;8.80;99.90;;;;;;5070137;28;20449;-64
2021/05/20 02:37:32;;;;;;;2.33;1.27;;;8.90;99.90;;;;;;5069853;28;20499;-66
2021/05/20 02:39:59;;;;;;;2.13;1.20;;;8.90;99.90;;;;;;5069686;28;20885;-66
2021/05/20 02:42:25;;;;;;;2.63;1.30;;;9.00;99.90;;;;;;5070118;28;20858;-64
2021/05/20 02:44:52;;;;;;;3.77;1.40;;;9.00;99.90;;;;;;5070039;28;20933;-65
2021/05/20 02:47:19;;;;;;;2.60;1.27;;;9.10;99.90;;;;;;5069862;28;20454;-65
2021/05/20 02:49:45;;;;;;;4.13;1.17;;;9.10;99.90;;;;;;5069880;28;20893;-65
2021/05/20 02:52:11;;;;;;;2.10;1.37;;;9.20;99.90;;;;;;5070280;28;20451;-65
2021/05/20 02:54:38;;;;;;;3.43;1.30;;;9.30;99.90;;;;;;5070146;28;20448;-64
2021/05/20 02:57:05;;;;;;;2.53;1.27;;;9.30;99.90;;;;;;5069349;28;20965;-66
2021/05/20 02:59:32;;;;;;;3.73;1.17;;;9.40;99.90;;;;;;5069752;28;20550;-65
2021/05/20 03:02:04;;;;;;;2.70;1.33;;;9.40;99.90;;;;;;5069844;28;20488;-65
2021/05/20 03:04:31;;;;;;;2.30;1.10;;;9.50;99.90;;;;;;5069822;28;20454;-65
2021/05/20 03:06:58;;;;;;;6.20;1.80;;;9.50;99.90;;;;;;5069427;28;20534;-65
2021/05/20 03:09:24;;;;;;;3.00;1.50;;;9.60;99.90;;;;;;5069684;28;20467;-66
2021/05/20 03:11:51;;;;;;;3.00;1.53;;;9.60;99.90;;;;;;5069563;28;20542;-65
2021/05/20 03:14:17;;;;;;;3.77;1.67;;;9.60;99.90;;;;;;5069613;28;20918;-66
2021/05/20 03:16:44;;;;;;;5.93;1.33;;;9.60;99.90;;;;;;5069104;28;20960;-65
2021/05/20 03:19:11;;;;;;;2.93;1.87;;;9.60;99.90;;;;;;5069529;28;20463;-66
2021/05/20 03:21:37;;;;;;;2.40;1.33;;;9.60;99.90;;;;;;5069573;28;20471;-64
2021/05/20 03:24:05;;;;;;;4.23;1.80;;;9.70;99.90;;;;;;5069743;28;20822;-66
2021/05/20 03:26:31;;;;;;;2.13;1.10;;;9.70;99.90;;;;;;5068422;28;21132;-66
2021/05/20 03:28:57;;;;;;;2.50;1.20;;;9.70;99.90;;;;;;5068896;28;20447;-67
2021/05/20 03:31:23;;;;;;;2.50;1.40;;;9.60;99.90;;;;;;5069246;28;20542;-64
2021/05/20 03:33:50;;;;;;;2.70;1.37;;;9.60;99.90;;;;;;5068698;28;20542;-67
2021/05/20 03:36:18;;;;;;;2.63;1.67;;;9.60;99.90;;;;;;5069648;28;20447;-64
2021/05/20 03:38:44;;;;;;;3.63;1.20;;;9.60;99.90;;;;;;5072191;28;20442;-66
2021/05/20 03:41:10;;;;;;;2.67;1.57;;;9.60;99.90;;;;;;5072989;28;20581;-65
2021/05/20 03:43:37;;;;;;;2.70;1.20;;;9.60;99.90;;;;;;5073225;28;20937;-65
2021/05/20 03:46:04;;;;;;;2.00;1.40;;;9.60;99.90;;;;;;5073219;28;20993;-67
2021/05/20 03:48:30;;;;;;;2.40;1.40;;;9.60;99.90;;;;;;5072469;28;20457;-67
2021/05/20 03:50:58;;;;;;;1.93;1.30;;;9.60;99.90;;;;;;5072925;28;20550;-64
2021/05/20 03:53:29;;;;;;;3.30;1.43;;;9.60;99.90;;;;;;5072897;28;20438;-65
2021/05/20 03:55:55;;;;;;;2.13;1.20;;;9.60;99.90;;;;;;5072692;28;20483;-65
2021/05/20 03:58:22;;;;;;;3.67;1.77;;;9.60;99.90;;;;;;5072644;28;20443;-64
2021/05/20 04:00:48;;;;;;;3.93;1.47;;;9.60;99.90;;;;;;5072499;28;21347;-65
2021/05/20 04:03:22;;;;;;;2.90;1.30;;;9.60;99.90;;;;;;5072682;28;20538;-65
2021/05/20 04:05:51;;;;;;;2.93;1.40;;;9.60;99.90;;;;;;5072664;28;20583;-65
2021/05/20 04:08:18;;;;;;;2.00;1.30;;;9.60;99.90;;;;;;5072185;28;20451;-64
2021/05/20 04:10:45;;;;;;;5.03;1.60;;;9.50;99.90;;;;;;5072685;28;21002;-68
2021/05/20 04:13:11;;;;;;;3.40;1.47;;;9.50;99.90;;;;;;5073097;28;20451;-68
2021/05/20 04:15:38;;;;;;;4.00;1.70;;;9.50;99.90;;;;;;5072712;28;20453;-64
2021/05/20 04:18:04;;;;;;;2.40;1.50;;;9.40;99.90;;;;;;5072265;28;20462;-64
2021/05/20 04:20:31;;;;;;;2.90;1.80;;;9.30;99.90;;;;;;5072144;28;20528;-65
2021/05/20 04:22:57;;;;;;;2.10;1.60;;;9.20;99.90;;;;;;5072227;28;20875;-66
2021/05/20 04:25:24;;;;;;;2.30;1.50;;;9.20;99.90;;;;;;5072280;28;20457;-65
2021/05/20 04:27:51;;;;;;;2.27;1.73;;;9.10;99.90;;;;;;5071963;28;20447;-65
2021/05/20 04:30:18;;;;;;;3.60;1.37;;;9.10;99.90;;;;;;5071803;28;20463;-66
2021/05/20 04:32:45;;;;;;;5.30;1.43;;;9.20;99.90;;;;;;5072054;28;20948;-65
2021/05/20 04:35:11;;;;;;;3.50;1.40;;;9.20;99.90;;;;;;5071836;28;20451;-67
2021/05/20 04:37:37;;;;;;;2.30;1.30;;;9.40;99.90;;;;;;5071539;28;20443;-65
2021/05/20 04:40:05;;;;;;;2.03;1.43;;;9.40;99.90;;;;;;5071584;28;20467;-64
2021/05/20 04:42:31;;;;;;;4.10;1.80;;;9.50;99.90;;;;;;5071502;28;20483;-65
2021/05/20 04:44:58;;;;;;;2.70;1.33;;;9.60;99.90;;;;;;5071517;28;20451;-65
2021/05/20 04:47:25;;;;;;;2.00;1.23;;;9.80;99.90;;;;;;5070951;28;20497;-65
2021/05/20 04:49:51;;;;;;;2.23;1.27;;;9.90;99.90;;;;;;5070896;28;20550;-65
2021/05/20 04:52:18;;;;;;;4.00;1.43;;;10.00;99.90;;;;;;5071356;28;21028;-66
2021/05/20 04:54:44;;;;;;;2.67;1.10;;;10.20;99.90;;;;;;5071143;28;20447;-65
2021/05/20 04:57:11;;;;;;;1.97;1.10;;;10.40;99.90;;;;;;5070845;28;20465;-67
2021/05/20 04:59:37;;;;;;;3.30;1.10;;;10.60;99.90;;;;;;5070863;28;20467;-66
2021/05/20 05:02:04;;;;;;;6.40;1.30;;;10.70;99.90;;;;;;5070935;28;20543;-66
2021/05/20 05:04:30;;;;;;;2.60;1.43;;;10.90;99.90;;;;;;5070610;28;20447;-65
2021/05/20 05:06:57;;;;;;;2.80;1.17;;;11.10;99.90;;;;;;5070684;28;20627;-65
2021/05/20 05:09:23;;;;;;;2.90;1.30;;;11.20;99.90;;;;;;5070658;28;21190;-66
2021/05/20 05:11:49;;;;;;;2.50;1.10;;;11.20;99.90;;;;;;5070622;28;20447;-66
2021/05/20 05:14:16;;;;;;;3.50;1.50;;;11.30;99.90;;;;;;5070865;28;20588;-67
2021/05/20 05:16:42;;;;;;;2.80;1.40;;;11.40;99.90;;;;;;5069637;28;20466;-66
2021/05/20 05:19:09;;;;;;;2.10;1.30;;;11.40;99.90;;;;;;5068693;28;20557;-65
2021/05/20 05:21:36;;;;;;;3.30;1.40;;;11.40;99.90;;;;;;5062492;28;21034;-64
2021/05/20 05:24:02;;;;;;;2.83;1.57;;;11.40;99.90;;;;;;5067035;28;20526;-66
2021/05/20 05:26:28;;;;;;;2.13;1.23;;;11.30;99.90;;;;;;5065311;28;20479;-67
2021/05/20 05:28:55;;;;;;;3.70;1.70;;;11.20;99.90;;;;;;5065833;28;21029;-66
2021/05/20 05:31:23;;;;;;;3.17;2.20;;;11.20;99.90;;;;;;5060444;28;20849;-67
2021/05/20 05:33:50;;;;;;;3.37;1.70;;;11.20;99.90;;;;;;5066536;28;20450;-66
2021/05/20 05:36:17;;;;;;;3.13;1.87;;;11.20;99.90;;;;;;5070760;28;20447;-64
2021/05/20 05:38:43;;;;;;;2.47;1.63;;;11.20;99.90;;;;;;5070345;28;20555;-66
2021/05/20 05:41:10;;;;;;;4.07;1.90;;;11.20;99.90;;;;;;5066538;28;20490;-67
2021/05/20 05:43:36;;;;;;;3.43;1.83;;;11.10;99.90;;;;;;5058335;28;20452;-67
2021/05/20 05:46:03;;;;;;;2.10;1.47;;;11.20;99.90;;;;;;5063508;28;20439;-67
2021/05/20 05:48:29;;;;;;;2.70;1.60;;;11.30;99.90;;;;;;5071527;28;20526;-66
2021/05/20 05:50:57;;;;;;;2.40;1.70;;;11.30;99.90;;;;;;5063787;28;20550;-68
2021/05/20 05:53:25;;;;;;;2.30;1.40;;;11.30;99.90;;;;;;5063234;28;20459;-65
2021/05/20 05:55:52;;;;;;;1.90;1.20;;;11.30;99.90;;;;;;5066088;28;20475;-66
2021/05/20 05:58:18;;;;;;;2.87;1.30;;;11.20;99.90;;;;;;5062064;28;20530;-65
2021/05/20 06:00:46;;;;;;;3.00;1.50;;;11.10;99.90;;;;;;5065762;28;20463;-65
2021/05/20 06:03:12;;;;;;;2.83;1.43;;;11.20;99.90;;;;;;5062574;28;20972;-64
2021/05/20 06:05:39;;;;;;;2.50;1.30;;;11.30;99.90;;;;;;5065831;28;20435;-64
2021/05/20 06:08:06;;;;;;;2.37;1.27;;;11.30;99.90;;;;;;5060022;28;20440;-65
2021/05/20 06:10:34;;;;;;;3.57;1.67;;;11.60;99.90;;;;;;5047606;28;20563;-65
2021/05/20 06:13:00;;;;;;;2.27;1.20;;;11.80;99.90;;;;;;5047573;28;20953;-65
2021/05/20 06:15:27;;;;;;;2.43;1.43;;;12.10;99.90;;;;;;5064366;28;20875;-65
2021/05/20 06:17:53;;;;;;;3.77;1.60;;;12.20;99.90;;;;;;5052111;28;20462;-66
2021/05/20 06:20:20;;;;;;;3.70;1.40;;;12.30;99.90;;;;;;5047396;28;20487;-66
2021/05/20 06:22:47;;;;;;;2.17;1.20;;;12.30;99.90;;;;;;5047376;28;20480;-65
2021/05/20 06:25:14;;;;;;;2.43;1.20;;;12.40;99.90;;;;;;5047522;28;20452;-64
2021/05/20 06:27:41;;;;;;;1.60;1.00;;;12.40;99.90;;;;;;5046813;28;20532;-66
2021/05/20 06:30:08;;;;;;;3.90;1.33;;;12.40;99.90;;;;;;5047879;28;20906;-65
2021/05/20 06:32:36;;;;;;;2.70;1.30;;;12.30;99.90;;;;;;5047708;28;20440;-67
2021/05/20 06:35:03;;;;;;;2.37;1.20;;;12.20;99.90;;;;;;5047619;28;20479;-65
2021/05/20 06:37:29;;;;;;;6.40;1.83;;;12.10;99.90;;;;;;5047480;28;20487;-67
2021/05/20 06:39:55;;;;;;;2.10;1.10;;;12.20;99.90;;;;;;5047278;28;20471;-66
2021/05/20 06:42:22;;;;;;;3.10;1.57;;;12.30;99.90;;;;;;5047313;28;20474;-64
2021/05/20 06:44:49;;;;;;;2.67;1.40;;;12.50;99.90;;;;;;5047733;28;21291;-63
2021/05/20 06:47:15;;;;;;;2.57;1.47;;;12.70;99.90;;;;;;5051313;28;20459;-62
2021/05/20 06:49:42;;;;;;;2.73;1.70;;;13.00;99.90;;;;;;5066073;28;20458;-66
2021/05/20 06:52:08;;;;;;;3.27;1.40;;;13.00;99.90;;;;;;5066316;28;20445;-63
2021/05/20 06:54:35;;;;;;;3.60;1.40;;;12.80;99.90;;;;;;5066049;28;20895;-64
2021/05/20 06:57:04;;;;;;;3.00;1.50;;;12.80;99.90;;;;;;5066585;28;20486;-65
2021/05/20 07:02:16;;;;;;;2.60;1.40;;;13.30;99.90;;;;;;5065693;28;20465;-64
2021/05/20 07:04:42;;;;;;;2.93;1.73;;;13.30;99.90;;;;;;5066201;28;20447;-65
2021/05/20 07:07:09;;;;;;;2.30;1.40;;;13.10;99.90;;;;;;5065868;28;20534;-64
2021/05/20 07:09:38;;;;;;;2.70;1.53;;;12.90;99.90;;;;;;5066489;28;20889;-65
2021/05/20 07:12:05;;;;;;;2.30;1.50;;;12.90;99.90;;;;;;5068028;28;20525;-64
2021/05/20 07:14:32;;;;;;;3.07;1.27;;;12.80;99.90;;;;;;5070130;28;20447;-65
2021/05/20 07:16:58;;;;;;;2.53;1.73;;;12.80;99.90;;;;;;5069784;28;20479;-65
2021/05/20 07:19:26;;;;;;;3.07;1.60;;;12.90;99.90;;;;;;5070176;28;20467;-66
2021/05/20 07:21:52;;;;;;;2.67;1.70;;;12.80;99.90;;;;;;5069911;28;20521;-65
2021/05/20 07:24:19;;;;;;;5.43;2.83;;;13.00;99.90;;;;;;5069812;28;20451;-64
2021/05/20 07:26:46;;;;;;;2.83;1.63;;;13.00;99.90;;;;;;5070050;28;20504;-66
2021/05/20 07:29:12;;;;;;;2.13;1.30;;;13.20;99.90;;;;;;5070242;28;20477;-64
2021/05/20 07:31:39;;;;;;;1.90;1.30;;;13.50;99.90;;;;;;5070119;28;20453;-64
2021/05/20 07:34:06;;;;;;;2.83;1.40;;;13.80;99.90;;;;;;5070092;28;20504;-66
2021/05/20 07:36:34;;;;;;;2.60;1.60;;;13.90;99.90;;;;;;5069888;28;20821;-65
2021/05/20 07:39:00;;;;;;;2.43;1.30;;;14.00;99.90;;;;;;5070024;28;20442;-64
2021/05/20 07:41:29;;;;;;;2.80;1.60;;;13.90;99.90;;;;;;5070326;28;20570;-64
2021/05/20 07:43:56;;;;;;;2.63;1.67;;;13.90;99.90;;;;;;5068963;28;20455;-65
2021/05/20 07:46:22;;;;;;;3.73;1.73;;;13.90;99.90;;;;;;5069857;28;20435;-65
2021/05/20 07:48:52;;;;;;;2.40;1.20;;;13.70;99.90;;;;;;5069909;28;20449;-64
2021/05/20 07:51:18;;;;;;;3.37;1.77;;;13.60;99.90;;;;;;5070165;28;20439;-64
2021/05/20 07:53:45;;;;;;;2.13;1.33;;;13.60;99.90;;;;;;5070067;28;20485;-65
2021/05/20 07:56:12;;;;;;;2.40;1.60;;;13.60;99.90;;;;;;5069357;28;20461;-65
2021/05/20 07:58:38;;;;;;;2.57;1.40;;;13.70;99.90;;;;;;5069812;28;20600;-63
2021/05/20 08:01:04;;;;;;;2.42;1.30;;;13.70;99.90;;;;;;5069582;28;21073;-64
2021/05/20 08:03:35;;;;;;;3.73;1.30;;;13.70;99.90;;;;;;5069238;28;20312;-66
2021/05/20 08:06:05;;;;;;;2.57;1.30;;;13.70;99.90;;;;;;5070182;28;20439;-63
2021/05/20 08:08:35;;;;;;;3.33;1.17;;;13.80;99.90;;;;;;5069398;28;20477;-67
2021/05/20 08:11:04;;;;;;;2.03;1.47;;;13.80;99.90;;;;;;5069452;28;20841;-66
2021/05/20 08:13:31;;;;;;;2.33;1.20;;;13.80;99.90;;;;;;5069616;28;20479;-66
2021/05/20 08:15:58;;;;;;;1.90;1.37;;;14.00;99.90;;;;;;5068696;28;20529;-66
2021/05/20 08:18:25;;;;;;;2.23;1.77;;;14.00;99.90;;;;;;5069664;28;20486;-66
2021/05/20 08:20:51;;;;;;;2.50;1.60;;;14.10;99.90;;;;;;5069268;28;20857;-66
2021/05/20 08:23:18;;;;;;;2.00;1.33;;;14.10;99.90;;;;;;5068279;28;20482;-66
2021/05/20 08:25:44;;;;;;;2.77;1.20;;;14.00;99.90;;;;;;5069424;28;20455;-66
2021/05/20 08:28:11;;;;;;;3.17;1.40;;;14.00;99.90;;;;;;5068587;28;20522;-67
2021/05/20 08:30:38;;;;;;;3.10;1.37;;;14.10;99.90;;;;;;5068884;28;20553;-66
2021/05/20 08:33:04;;;;;;;2.30;1.33;;;14.20;99.90;;;;;;5069078;28;20439;-66
2021/05/20 08:35:31;;;;;;;3.80;1.67;;;14.70;99.90;;;;;;5068820;28;20451;-67
2021/05/20 08:37:57;;;;;;;2.00;1.40;;;14.80;99.90;;;;;;5068778;28;20447;-65
2021/05/20 08:40:24;;;;;;;3.00;1.30;;;14.70;99.90;;;;;;5068700;28;20467;-67
2021/05/20 08:42:50;;;;;;;2.53;1.30;;;14.60;99.90;;;;;;5068034;28;20475;-65
2021/05/20 08:45:19;;;;;;;2.53;1.20;;;14.40;99.90;;;;;;5056984;28;20537;-66
2021/05/20 08:47:48;;;;;;;2.73;1.73;;;14.30;99.90;;;;;;5069969;28;20808;-66
2021/05/20 08:50:16;;;;;;;2.10;1.20;;;14.00;99.90;;;;;;5067156;28;20999;-66
2021/05/20 08:52:43;;;;;;;1.80;0.80;;;13.80;99.90;;;;;;5049188;28;20531;-66
2021/05/20 08:55:13;;;;;;;2.80;1.30;;;13.60;99.90;;;;;;5061566;28;20472;-65
2021/05/20 08:57:40;;;;;;;1.80;0.70;;;13.50;99.90;;;;;;5064695;28;20443;-65
2021/05/20 09:00:10;;;;;;;2.27;1.23;;;13.50;99.90;;;;;;5066454;28;20470;-65
2021/05/20 09:02:37;;;;;;;1.73;0.90;;;13.80;99.90;;;;;;5060236;28;20486;-67
2021/05/20 09:05:10;;;;;;;3.30;0.90;;;14.40;99.90;;;;;;5068008;28;20527;-67
2021/05/20 09:07:38;;;;;;;1.70;0.97;;;14.90;99.90;;;;;;5059494;28;20447;-66
2021/05/20 09:10:26;;;;;;;2.40;0.60;;;15.10;99.90;;;;;;5063547;28;20504;-66
2021/05/20 09:12:56;;;;;;;1.73;0.80;;;15.10;99.90;;;;;;5063920;28;20452;-67
2021/05/20 09:15:28;;;;;;;3.07;0.80;;;15.00;99.90;;;;;;5063921;28;20873;-66
2021/05/20 09:18:03;;;;;;;1.50;0.80;;;15.20;99.90;;;;;;5062427;28;20542;-67
2021/05/20 09:20:29;;;;;;;2.33;1.17;;;15.70;99.90;;;;;;5064023;28;20932;-67
2021/05/20 09:23:05;;;;;;;2.30;1.03;;;16.00;99.90;;;;;;5065469;28;21148;-68
2021/05/20 09:25:34;;;;;;;2.30;1.10;;;16.30;99.90;;;;;;5061626;28;20530;-67
2021/05/20 09:28:01;;;;;;;3.17;1.30;;;16.40;99.90;;;;;;5063758;28;20976;-66
2021/05/20 09:30:28;;;;;;;2.10;1.10;;;16.30;99.90;;;;;;5063464;28;20499;-68
2021/05/20 09:32:58;;;;;;;2.07;0.90;;;16.00;99.90;;;;;;5061413;28;20534;-66
2021/05/20 09:35:28;;;;;;;4.57;1.17;;;15.30;99.90;;;;;;5061655;28;20496;-67
2021/05/20 09:38:00;;;;;;;1.87;1.17;;;14.90;99.90;;;;;;5062276;28;20538;-67
2021/05/20 09:40:28;;;;;;;3.30;1.27;;;14.70;99.90;;;;;;5068234;28;20470;-66
2021/05/20 09:42:55;;;;;;;1.80;1.10;;;14.80;99.90;;;;;;5064566;28;20471;-66
2021/05/20 09:45:23;;;;;;;2.53;1.30;;;15.10;99.90;;;;;;5066598;28;20480;-67
2021/05/20 09:47:50;;;;;;;1.70;1.10;;;15.60;99.90;;;;;;5067059;28;20486;-67
2021/05/20 09:50:20;;;;;;;2.63;1.37;;;15.90;99.90;;;;;;5054433;28;20499;-64
2021/05/20 09:52:48;;;;;;;1.80;1.00;;;16.70;99.90;;;;;;5066473;28;20459;-65
2021/05/20 09:55:23;;;;;;;1.93;1.07;;;17.10;99.90;;;;;;5064948;28;21000;-65
2021/05/20 09:57:50;;;;;;;1.93;1.20;;;17.10;99.90;;;;;;5060133;28;20454;-65
2021/05/20 10:00:21;;;;;;;2.37;1.27;;;16.90;99.90;;;;;;5066386;28;20983;-64
2021/05/20 10:02:58;;;;;;;3.30;1.10;;;17.80;99.90;;;;;;5057229;28;20471;-65
2021/05/20 10:05:31;;;;;;;1.60;0.90;;;18.30;99.90;;;;;;5063972;28;20552;-65
2021/05/20 10:07:58;;;;;;;1.60;0.90;;;17.70;99.60;;;;;;5061809;28;20537;-65
2021/05/20 10:10:25;;;;;;;1.90;1.07;;;18.00;99.90;;;;;;5065101;28;20491;-66
2021/05/20 10:12:52;;;;;;;1.70;0.90;;;18.70;99.70;;;;;;5063374;28;20456;-65
2021/05/20 10:15:20;;;;;;;2.50;1.10;;;19.40;96.00;;;;;;5067394;28;20457;-65
2021/05/20 10:17:47;;;;;;;3.70;1.03;;;18.80;95.60;;;;;;5065064;28;20461;-65
2021/05/20 10:20:16;;;;;;;2.37;0.90;;;18.10;96.70;;;;;;5067193;28;21061;-65
2021/05/20 10:22:44;;;;;;;1.93;0.90;;;18.20;97.30;;;;;;5059398;28;20471;-65
2021/05/20 10:25:12;;;;;;;2.37;1.20;;;19.10;97.40;;;;;;5067825;28;20994;-64
2021/05/20 10:27:40;;;;;;;2.00;1.50;;;19.80;97.80;;;;;;5063652;28;20574;-64
2021/05/20 10:30:09;;;;;;;2.87;1.47;;;19.70;96.10;;;;;;5052671;28;20552;-64
2021/05/20 10:32:37;;;;;;;2.10;1.10;;;18.70;97.70;;;;;;5051068;28;21043;-66
2021/05/20 10:35:09;;;;;;;1.90;1.20;;;18.40;96.80;;;;;;5055037;28;20458;-66
2021/05/20 10:37:40;;;;;;;3.20;1.10;;;17.80;97.30;;;;;;5050267;28;20449;-63
2021/05/20 10:40:27;;;;;;;3.47;1.20;;;16.90;98.30;;;;;;5056493;28;21031;-65
2021/05/20 10:43:06;;;;;;;1.87;0.80;;;16.10;99.90;;;;;;5060080;28;20479;-65
2021/05/20 10:45:34;;;;;;;2.57;1.20;;;15.80;99.90;;;;;;5064108;28;20816;-64
2021/05/20 10:48:19;;;;;;;3.10;0.90;;;15.90;99.20;;;;;;5069931;28;20451;-64
2021/05/20 10:51:13;;;;;;;2.13;0.83;;;16.20;98.80;;;;;;5067922;28;20466;-65
2021/05/20 10:53:53;;;;;;;1.80;0.97;;;17.20;98.50;;;;;;5062711;28;20452;-66
2021/05/20 10:56:48;;;;;;;1.77;0.80;;;18.80;96.50;;;;;;5055235;28;20452;-65
2021/05/20 10:59:40;;;;;;;2.07;0.93;;;20.00;93.60;;;;;;5055678;28;20467;-63
2021/05/20 11:02:17;;;;;;;3.50;0.97;;;20.30;92.30;;;;;;5060419;28;20485;-62
2021/05/20 11:04:44;;;;;;;2.10;0.90;;;20.40;92.50;;;;;;5057276;28;20443;-64
2021/05/20 11:07:12;;;;;;;1.80;0.80;;;20.30;91.70;;;;;;5059885;28;20455;-64
2021/05/20 11:09:43;;;;;;;1.70;0.90;;;20.40;92.30;;;;;;5057788;28;20470;-63
2021/05/20 11:12:11;;;;;;;1.97;0.97;;;20.80;92.10;;;;;;5062508;28;21210;-64
2021/05/20 11:14:42;;;;;;;2.53;1.17;;;20.60;91.00;;;;;;5071421;28;20833;-64
2021/05/20 11:17:31;;;;;;;2.47;1.00;;;20.60;90.00;;;;;;5071379;28;20494;-65
2021/05/20 11:20:37;;;;;;;3.97;1.13;;;20.40;89.30;;;;;;5071777;28;20537;-65
2021/05/20 11:23:23;;;;;;;2.10;1.07;;;20.20;89.80;;;;;;5071909;28;20477;-64
2021/05/20 11:26:21;;;;;;;2.07;1.03;;;19.30;92.00;;;;;;5071960;28;20477;-64
2021/05/20 11:28:55;;;;;;;1.60;0.70;;;19.90;90.50;;;;;;5029468;28;20490;-64
2021/05/20 11:31:24;;;;;;;1.90;1.00;;;20.70;91.10;;;;;;5054354;28;20448;-60
2021/05/20 11:34:22;;;;;;;4.37;0.80;;;20.80;88.00;;;;;;5053795;28;20456;-65
2021/05/20 11:36:49;;;;;;;1.90;0.90;;;21.10;90.50;;;;;;5052228;28;20486;-63
2021/05/20 11:39:17;;;;;;;2.43;1.00;;;21.30;87.90;;;;;;5061316;28;20564;-64
2021/05/20 11:41:45;;;;;;;2.20;1.00;;;20.40;88.70;;;;;;5058920;28;22769;-63
2021/05/20 11:44:14;;;;;;;1.80;0.90;;;19.40;89.20;;;;;;5058333;28;20455;-64
2021/05/20 11:46:43;;;;;;;4.13;1.00;;;19.10;91.90;;;;;;5060976;28;20967;-63
2021/05/20 11:49:19;;;;;;;4.30;0.90;;;20.00;91.40;;;;;;5058863;28;20839;-64
2021/05/20 11:51:48;;;;;;;1.90;1.00;;;20.10;90.60;;;;;;5061351;28;20458;-66
2021/05/20 11:54:15;;;;;;;2.03;0.93;;;19.10;89.90;;;;;;5054719;28;20447;-65
2021/05/20 11:56:46;;;;;;;2.27;0.90;;;18.20;91.70;;;;;;5065481;28;20941;-64
2021/05/20 11:59:13;;;;;;;2.10;1.03;;;17.70;91.90;;;;;;5061738;28;20908;-64
2021/05/20 12:01:43;;;;;;;2.00;1.00;;;17.40;91.90;;;;;;5062425;28;20512;-65
2021/05/20 12:04:10;;;;;;;2.43;1.63;;;17.60;93.90;;;;;;5064856;28;20447;-65
2021/05/20 12:06:36;;;;;;;2.10;0.80;;;18.00;93.60;;;;;;5067668;28;20513;-65
2021/05/20 12:09:08;;;;;;;1.80;0.80;;;18.50;92.20;;;;;;5069653;28;20445;-63
2021/05/20 12:11:34;;;;;;;3.20;0.70;;;18.70;90.00;;;;;;5070011;28;20447;-65
2021/05/20 12:14:01;;;;;;;1.90;0.80;;;19.60;91.40;;;;;;5070166;28;20470;-65
2021/05/20 12:16:32;;;;;;;2.00;0.93;;;20.90;87.50;;;;;;5069550;28;20527;-65
2021/05/20 12:18:58;;;;;;;1.70;0.80;;;20.60;90.00;;;;;;5069365;28;21015;-64
2021/05/20 12:21:25;;;;;;;2.03;0.80;;;19.50;90.00;;;;;;5069143;28;20477;-65
2021/05/20 12:23:55;;;;;;;1.70;0.70;;;19.50;90.10;;;;;;5070113;28;20444;-65
2021/05/20 12:26:29;;;;;;;1.60;0.70;;;19.00;90.10;;;;;;5067555;28;20443;-64
2021/05/20 12:28:57;;;;;;;2.23;0.80;;;18.50;90.10;;;;;;5064915;28;20443;-64
2021/05/20 12:31:23;;;;;;;3.17;0.87;;;18.10;90.60;;;;;;5069378;28;20518;-64
2021/05/20 12:33:50;;;;;;;1.93;0.80;;;17.70;91.70;;;;;;5069376;28;20445;-65
2021/05/20 12:36:31;;;;;;;1.67;0.73;;;17.70;92.20;;;;;;5067280;28;20454;-64
2021/05/20 12:38:57;;;;;;;2.10;0.90;;;17.50;91.70;;;;;;5069175;28;20450;-65
2021/05/20 12:41:34;;;;;;;3.33;0.90;;;17.40;91.20;;;;;;5070185;28;21106;-64
2021/05/20 12:44:13;;;;;;;1.40;0.70;;;17.30;91.20;;;;;;5069311;28;20443;-65
2021/05/20 12:46:39;;;;;;;1.60;0.70;;;17.50;91.30;;;;;;5067849;28;20447;-65
2021/05/20 12:49:07;;;;;;;2.03;0.70;;;17.80;91.60;;;;;;5068721;28;20504;-65
2021/05/20 12:51:34;;;;;;;1.50;0.70;;;18.10;92.20;;;;;;5069086;28;20531;-66
2021/05/20 12:54:02;;;;;;;2.30;0.80;;;18.20;90.50;;;;;;5069039;28;20982;-64
2021/05/20 12:56:33;;;;;;;1.60;0.70;;;18.20;91.90;;;;;;5068639;28;20451;-65
2021/05/20 12:59:02;;;;;;;1.80;0.80;;;18.40;86.70;;;;;;5068192;28;20461;-65
2021/05/20 13:01:35;;;;;;;1.93;1.00;;;18.40;87.70;;;;;;5067120;28;20488;-64